Time;durP1;ratioP1;P1;durP2;ratioP2;P2;SDS_P1;SDS_P2;PMS_P1;PMS_P2;Temp;Humidity;BMP_temperature;BMP_pressure;BME280_temperature;BME280_humidity;BME280_pressure;Samples;Min_cycle;Max_cycle;Signal;HPM_P1;HPM_P2
2022/08/15 00:04:08;;;;;;;6.40;5.80;;;;;;;25.74;41.26;98933.09;10384719;28;20522;-74
2022/08/15 00:09:30;;;;;;;6.00;5.50;;;;;;;25.70;40.93;98932.78;10391348;28;20053;-74
2022/08/15 00:14:52;;;;;;;5.93;5.43;;;;;;;25.72;41.17;98933.34;10396733;28;20064;-74
2022/08/15 00:19:53;;;;;;;6.90;5.65;;;;;;;25.62;41.16;98925.06;10404832;28;20092;-73
2022/08/15 00:24:54;;;;;;;5.45;5.05;;;;;;;25.68;40.37;98928.66;10411548;28;20704;-73
2022/08/15 00:30:02;;;;;;;6.50;4.55;;;;;;;25.55;39.85;98921.69;10392389;28;20053;-74
2022/08/15 00:35:35;;;;;;;4.57;3.85;;;;;;;25.51;38.75;98923.31;10403641;28;20602;-73
2022/08/15 00:40:30;;;;;;;5.63;4.13;;;;;;;25.50;38.66;98918.91;10404833;28;20051;-72
2022/08/15 00:45:32;;;;;;;;;;;;;;;25.43;37.46;98916.38;10403139;28;20107;-75
2022/08/15 00:50:37;;;;;;;3.78;3.25;;;;;;;25.41;37.98;98911.19;10401565;28;20051;-73
2022/08/15 00:55:45;;;;;;;3.03;2.78;;;;;;;25.31;37.14;98911.09;10387734;28;20574;-74
2022/08/15 01:00:53;;;;;;;4.10;2.78;;;;;;;25.26;36.83;98919.13;10399890;28;20080;-73
2022/08/15 01:05:57;;;;;;;5.00;2.63;;;;;;;25.18;37.45;98920.41;10401039;28;20132;-75
2022/08/15 01:11:03;;;;;;;5.28;3.10;;;;;;;25.21;38.24;98914.44;10387493;28;20559;-73
2022/08/15 01:16:06;;;;;;;5.90;3.42;;;;;;;25.23;36.92;98927.81;10406844;28;20075;-73
2022/08/15 01:21:28;;;;;;;2.90;2.58;;;;;;;25.15;37.38;98926.34;10398753;28;20049;-73
2022/08/15 01:26:32;;;;;;;3.03;2.60;;;;;;;25.13;37.74;98935.84;10397806;28;20072;-73
2022/08/15 01:31:45;;;;;;;4.25;2.25;;;;;;;25.06;37.91;98916.97;10404214;28;20138;-73
2022/08/15 01:36:50;;;;;;;5.05;2.70;;;;;;;25.08;37.60;98924.88;10406067;28;20044;-73
2022/08/15 01:42:01;;;;;;;3.88;2.33;;;;;;;25.09;37.93;98937.44;10395760;28;20080;-73
2022/08/15 01:47:16;;;;;;;3.08;2.13;;;;;;;24.89;37.90;98946.91;10401075;28;20048;-73
2022/08/15 01:52:20;;;;;;;4.70;2.08;;;;;;;24.89;37.88;98949.63;10395629;28;20136;-73
2022/08/15 01:57:42;;;;;;;2.97;1.88;;;;;;;24.80;38.72;98949.25;10396438;28;20057;-74
2022/08/15 02:02:44;;;;;;;4.68;2.00;;;;;;;24.65;39.67;98955.28;10373378;28;20079;-72
2022/08/15 02:07:51;;;;;;;4.07;1.92;;;;;;;24.55;40.79;98957.81;10392585;28;20160;-72
2022/08/15 02:13:15;;;;;;;3.47;2.13;;;;;;;24.44;41.17;98962.25;10385344;28;20056;-75
2022/08/15 02:18:25;;;;;;;3.42;2.33;;;;;;;24.45;42.08;98963.06;10391306;28;20057;-73
2022/08/15 02:23:26;;;;;;;5.88;2.72;;;;;;;24.45;42.84;98976.66;10379224;28;20557;-72
2022/08/15 02:28:30;;;;;;;3.72;2.85;;;;;;;24.41;43.31;98961.91;10392900;28;20108;-73
2022/08/15 02:33:38;;;;;;;3.83;2.40;;;;;;;24.38;43.02;98968.69;10393055;28;20045;-73
2022/08/15 02:38:45;;;;;;;3.65;2.00;;;;;;;24.46;43.36;98965.53;10385008;28;20076;-73
2022/08/15 02:43:50;;;;;;;3.45;1.92;;;;;;;24.52;43.24;98966.47;10394937;28;20042;-74
2022/08/15 02:48:53;;;;;;;4.28;2.30;;;;;;;24.51;43.30;98964.81;10398039;28;20077;-73
2022/08/15 02:53:58;;;;;;;3.90;2.15;;;;;;;24.58;43.22;98973.66;10395477;28;20053;-73
2022/08/15 02:59:00;;;;;;;3.50;2.08;;;;;;;24.62;43.83;98980.28;10387533;28;20144;-72
2022/08/15 03:04:01;;;;;;;4.60;3.00;;;;;;;24.56;44.89;98983.94;10391829;28;20264;-73
2022/08/15 03:09:22;;;;;;;4.55;2.35;;;;;;;24.44;46.19;98980.44;10394025;28;20605;-72
2022/08/15 03:14:24;;;;;;;14.43;3.17;;;;;;;24.42;47.00;98977.16;10396034;28;20124;-72
2022/08/15 03:19:37;;;;;;;6.65;2.78;;;;;;;24.47;47.45;98980.81;10390281;28;20056;-73
2022/08/15 03:24:42;;;;;;;8.13;2.85;;;;;;;24.44;47.67;98975.00;10396126;28;20046;-73
2022/08/15 03:29:47;;;;;;;2.75;2.40;;;;;;;24.48;47.44;98987.06;10395003;28;20107;-73
2022/08/15 03:34:53;;;;;;;5.13;2.55;;;;;;;24.45;48.01;98976.66;10395237;28;20540;-72
2022/08/15 03:39:56;;;;;;;6.25;3.30;;;;;;;24.50;48.17;98984.91;10372366;28;20531;-72
2022/08/15 03:44:58;;;;;;;;;;;;;;;24.33;48.90;98988.41;10374997;28;20112;-72
2022/08/15 03:50:00;;;;;;;6.30;2.67;;;;;;;24.37;48.60;98985.25;10388409;28;19932;-72
2022/08/15 03:55:24;;;;;;;5.30;2.58;;;;;;;24.21;49.03;98987.66;10398100;28;20053;-73
2022/08/15 04:00:32;;;;;;;5.05;2.80;;;;;;;24.29;49.00;98992.72;10398519;28;20059;-74
2022/08/15 04:05:35;;;;;;;5.72;2.72;;;;;;;24.25;49.16;98994.28;10386839;28;20498;-75
2022/08/15 04:10:40;;;;;;;6.95;3.30;;;;;;;24.25;48.68;99002.44;10379870;28;20783;-74
2022/08/15 04:15:45;;;;;;;4.10;2.40;;;;;;;24.29;49.17;98992.72;10398184;28;20373;-75
2022/08/15 04:21:10;;;;;;;5.63;2.20;;;;;;;24.21;48.79;98992.28;10399926;28;20064;-73
2022/08/15 04:26:13;;;;;;;4.95;2.75;;;;;;;24.15;49.32;98999.50;10403505;28;20087;-75
2022/08/15 04:31:27;;;;;;;5.75;2.65;;;;;;;24.19;48.95;99000.69;10395380;28;20041;-74
2022/08/15 04:36:33;;;;;;;3.88;2.70;;;;;;;24.13;49.10;99001.66;10402980;28;20115;-74
2022/08/15 04:41:36;;;;;;;2.67;2.10;;;;;;;24.05;49.83;98993.88;10399394;28;20147;-74
2022/08/15 04:46:38;;;;;;;3.00;2.70;;;;;;;24.04;50.15;98994.97;10384922;28;20051;-73
2022/08/15 04:51:39;;;;;;;6.10;2.80;;;;;;;23.97;50.90;99005.97;10383764;28;20564;-74
2022/08/15 04:56:42;;;;;;;;;;;;;;;23.82;51.62;99001.03;10381686;28;20048;-73
2022/08/15 05:01:50;;;;;;;4.60;2.70;;;;;;;23.83;51.36;98995.34;10386700;28;20350;-75
2022/08/15 05:07:05;;;;;;;4.25;3.10;;;;;;;23.79;51.89;98986.03;10392652;28;20037;-73
2022/08/15 05:12:07;;;;;;;5.22;2.95;;;;;;;23.80;51.85;98976.81;10388735;28;20057;-73
2022/08/15 05:17:13;;;;;;;5.72;2.40;;;;;;;23.82;51.95;98969.25;10379598;28;20138;-73
2022/08/15 05:22:17;;;;;;;5.45;2.80;;;;;;;23.99;51.43;98969.34;10396503;28;20056;-75
2022/08/15 05:27:18;;;;;;;8.18;3.03;;;;;;;24.03;51.64;98968.84;10394667;28;20156;-73
2022/08/15 05:32:20;;;;;;;5.20;2.35;;;;;;;24.04;51.14;98970.50;10393216;28;20049;-73
2022/08/15 05:37:24;;;;;;;6.50;2.13;;;;;;;23.83;52.16;98970.91;10379457;28;20080;-75
2022/08/15 05:43:03;;;;;;;7.38;2.70;;;;;;;23.86;52.15;98977.78;10395026;28;20084;-74
2022/08/15 05:48:24;;;;;;;4.10;2.47;;;;;;;23.75;52.17;98990.31;10402696;28;20139;-75
2022/08/15 05:53:51;;;;;;;;;;;;;;;23.75;52.29;98997.59;10388407;28;22022;-72
2022/08/15 05:59:04;;;;;;;5.00;2.42;;;;;;;23.81;52.37;98996.69;10405670;28;19928;-75
2022/08/15 06:04:32;;;;;;;5.75;2.30;;;;;;;23.78;52.22;99005.28;10394255;28;22096;-74
2022/08/15 06:09:46;;;;;;;5.18;2.63;;;;;;;23.62;52.41;99001.44;10381049;28;20110;-72
2022/08/15 06:15:04;;;;;;;5.20;2.78;;;;;;;23.60;53.05;99017.13;10386211;28;20052;-72
2022/08/15 06:20:10;;;;;;;6.80;2.58;;;;;;;23.47;53.43;99004.66;10382765;28;20041;-74
2022/08/15 06:25:42;;;;;;;3.58;2.15;;;;;;;23.60;53.47;98996.25;10398092;28;20442;-72
2022/08/15 06:30:52;;;;;;;5.18;2.15;;;;;;;23.42;54.10;98993.66;10415107;28;20439;-73
2022/08/15 06:36:06;;;;;;;6.10;2.33;;;;;;;23.55;53.82;99001.56;10424910;28;20221;-77
2022/08/15 06:41:31;;;;;;;3.92;2.53;;;;;;;23.53;54.26;99016.47;10427158;28;20445;-72
2022/08/15 06:46:33;;;;;;;5.97;2.63;;;;;;;23.57;54.07;99015.75;10399661;28;20051;-72
2022/08/15 06:51:50;;;;;;;4.57;2.25;;;;;;;23.53;54.34;99009.13;10402537;28;20048;-73
2022/08/15 06:56:58;;;;;;;8.00;3.33;;;;;;;23.54;53.95;99008.06;10407460;28;20671;-73
2022/08/15 07:02:19;;;;;;;6.47;2.78;;;;;;;23.67;53.61;99009.69;10402945;28;20049;-78
2022/08/15 07:07:37;;;;;;;3.67;2.47;;;;;;;23.89;53.33;99004.47;10403258;28;20063;-75
2022/08/15 07:13:10;;;;;;;2.97;2.63;;;;;;;23.96;52.97;99010.59;10387486;28;20158;-75
2022/08/15 07:18:25;;;;;;;5.28;2.35;;;;;;;23.96;52.82;99012.47;10363833;28;20826;-75
2022/08/15 07:23:35;;;;;;;6.35;2.40;;;;;;;24.09;53.06;99014.91;10389642;28;20447;-72
2022/08/15 07:28:43;;;;;;;5.20;2.17;;;;;;;24.23;52.82;99022.75;10406028;28;20302;-73
2022/08/15 07:33:49;;;;;;;3.15;2.60;;;;;;;24.20;52.64;99021.38;10381632;28;20061;-74
2022/08/15 07:38:57;;;;;;;4.55;3.03;;;;;;;24.20;52.31;99032.25;10398808;28;20104;-74
2022/08/15 07:44:18;;;;;;;4.90;2.73;;;;;;;24.13;52.95;99028.84;10379691;28;20063;-73
2022/08/15 07:49:27;;;;;;;4.70;2.15;;;;;;;24.13;52.90;99029.66;10386229;28;20057;-75
2022/08/15 07:54:33;;;;;;;4.75;3.15;;;;;;;24.14;52.79;99030.47;10384438;28;20045;-75
2022/08/15 08:00:19;;;;;;;3.88;2.28;;;;;;;24.21;53.37;99024.91;10382399;28;20135;-78
2022/08/15 08:06:01;;;;;;;4.13;3.00;;;;;;;24.14;53.04;99030.47;10399976;28;20056;-76
2022/08/15 08:11:43;;;;;;;4.10;2.83;;;;;;;24.02;53.78;99044.13;10399664;28;20049;-72
2022/08/15 08:16:51;;;;;;;4.40;2.40;;;;;;;24.09;53.55;99065.72;10389182;28;20043;-72
2022/08/15 08:22:09;;;;;;;3.53;3.20;;;;;;;24.06;54.54;99067.03;10403792;28;20048;-74
2022/08/15 08:27:35;;;;;;;3.03;2.70;;;;;;;24.15;54.75;99072.91;10397019;28;20047;-73
2022/08/15 08:32:57;;;;;;;6.53;2.97;;;;;;;24.17;55.26;99071.63;10368514;28;20049;-73
2022/08/15 08:38:38;;;;;;;5.72;3.45;;;;;;;24.17;56.42;99090.63;10393184;28;20053;-73
2022/08/15 08:43:59;;;;;;;3.88;2.83;;;;;;;23.96;57.38;99088.56;10402460;28;20053;-73
2022/08/15 08:49:38;;;;;;;5.00;3.10;;;;;;;24.09;57.35;99071.97;10395750;28;20221;-77
2022/08/15 08:55:05;;;;;;;6.15;3.58;;;;;;;24.27;57.46;99084.56;10389422;28;20522;-76
2022/08/15 09:00:16;;;;;;;3.92;2.67;;;;;;;24.32;57.11;99081.97;10395720;28;20111;-77
2022/08/15 09:05:28;;;;;;;7.03;3.28;;;;;;;24.86;55.95;99086.22;10387472;28;20128;-73
2022/08/15 09:10:49;;;;;;;4.85;3.30;;;;;;;24.95;54.91;99095.66;10393581;28;20127;-73
2022/08/15 09:15:56;;;;;;;6.13;3.00;;;;;;;25.26;53.46;99098.84;10399229;28;20988;-74
2022/08/15 09:21:00;;;;;;;5.47;2.92;;;;;;;25.87;51.17;99093.50;10361334;28;20052;-74
2022/08/15 09:26:07;;;;;;;5.00;2.93;;;;;;;26.44;48.89;99114.13;10383696;28;20116;-72
2022/08/15 09:31:25;;;;;;;4.00;2.58;;;;;;;26.53;48.05;99106.31;10389778;28;20040;-75
2022/08/15 09:37:00;;;;;;;6.05;2.80;;;;;;;25.99;48.76;99120.69;10403104;28;20045;-75
2022/08/15 09:42:23;;;;;;;3.28;2.55;;;;;;;25.70;49.92;99093.56;10389452;28;20045;-74
2022/08/15 09:48:00;;;;;;;4.15;2.55;;;;;;;25.64;49.78;99108.19;10394545;28;20041;-74
2022/08/15 09:53:10;;;;;;;;;;;;;;;25.49;50.37;99108.78;10392406;28;20632;-72
2022/08/15 09:58:20;;;;;;;3.95;2.40;;;;;;;25.32;50.66;99116.13;10390931;28;19925;-74
2022/08/15 10:03:45;;;;;;;3.35;2.95;;;;;;;25.09;51.26;99117.09;10379519;28;20052;-72
2022/08/15 10:08:54;;;;;;;5.93;3.30;;;;;;;25.25;51.29;99118.97;10366004;28;20550;-75
2022/08/15 10:14:25;;;;;;;5.28;2.92;;;;;;;25.19;50.93;99117.25;10392827;28;20758;-75
2022/08/15 10:19:34;;;;;;;3.78;2.20;;;;;;;25.54;50.41;99113.47;10386084;28;20076;-77
2022/08/15 10:24:39;;;;;;;3.08;2.10;;;;;;;25.77;49.19;99107.81;10375687;28;20515;-74
2022/08/15 10:30:10;;;;;;;4.80;2.60;;;;;;;25.83;49.47;99099.72;10375354;28;20048;-73
2022/08/15 10:35:44;;;;;;;3.72;2.88;;;;;;;25.93;48.48;99110.75;10396825;28;20060;-74
2022/08/15 10:41:20;;;;;;;4.15;2.05;;;;;;;25.85;48.50;99100.28;10398026;28;20060;-73
2022/08/15 10:46:40;;;;;;;4.35;2.70;;;;;;;26.22;47.27;99091.50;10394170;28;20045;-74
2022/08/15 10:51:56;;;;;;;4.38;2.60;;;;;;;26.65;46.12;99100.72;10377973;28;20049;-74
2022/08/15 10:56:57;;;;;;;3.10;2.33;;;;;;;26.44;46.66;99097.75;10378847;28;20049;-72
2022/08/15 11:02:41;;;;;;;5.10;2.30;;;;;;;28.14;42.72;99093.63;10391453;28;20060;-76
2022/08/15 11:07:50;;;;;;;3.67;2.35;;;;;;;30.80;37.52;99096.31;10396547;28;20151;-74
2022/08/15 11:13:12;;;;;;;3.28;2.10;;;;;;;32.28;35.61;99092.44;10392408;28;20053;-74
2022/08/15 11:18:23;;;;;;;3.08;2.08;;;;;;;32.23;34.43;99098.00;10397600;28;20061;-77
2022/08/15 11:23:31;;;;;;;2.72;2.22;;;;;;;31.15;35.95;99099.09;10394223;28;20870;-75
2022/08/15 11:28:33;;;;;;;4.50;1.80;;;;;;;31.49;35.14;99115.56;10394034;28;20059;-74
2022/08/15 11:33:56;;;;;;;2.90;2.05;;;;;;;32.29;33.79;99093.25;10379521;28;20152;-76
2022/08/15 11:39:02;;;;;;;5.78;2.20;;;;;;;30.97;35.39;99098.69;10380984;28;20056;-77
2022/08/15 11:44:19;;;;;;;2.53;2.20;;;;;;;29.41;37.75;99093.28;10392200;28;20203;-76
2022/08/15 11:49:33;;;;;;;2.97;2.53;;;;;;;29.13;38.57;99092.75;10387629;28;20056;-76
2022/08/15 11:54:35;;;;;;;2.63;2.03;;;;;;;29.48;37.89;99088.34;10395201;28;20121;-75
2022/08/15 11:59:55;;;;;;;2.15;1.77;;;;;;;30.58;37.09;99088.53;10394581;28;20052;-76
2022/08/15 12:05:12;;;;;;;2.70;2.28;;;;;;;31.19;34.57;99086.44;10392377;28;20172;-77
2022/08/15 12:10:38;;;;;;;2.13;1.80;;;;;;;31.25;33.95;99085.28;10373362;28;20048;-76
2022/08/15 12:15:59;;;;;;;3.55;1.80;;;;;;;29.94;36.07;99096.47;10392619;28;20048;-75
2022/08/15 12:21:02;;;;;;;2.65;2.00;;;;;;;29.21;38.52;99094.13;10399483;28;21277;-76
2022/08/15 12:26:13;;;;;;;3.97;2.78;;;;;;;29.44;38.84;99088.09;10402698;28;20063;-77
2022/08/15 12:31:37;;;;;;;3.40;2.40;;;;;;;30.34;37.09;99104.81;10390015;28;20057;-77
2022/08/15 12:36:44;;;;;;;3.22;2.33;;;;;;;30.70;37.30;99096.38;10397761;28;20048;-77
2022/08/15 12:42:05;;;;;;;;;;;;;;;30.40;36.26;99097.38;10373843;28;20405;-76
2022/08/15 12:47:30;;;;;;;3.80;2.23;;;;;;;29.17;39.48;99110.28;10389116;28;19928;-75
2022/08/15 12:52:35;;;;;;;4.90;2.53;;;;;;;28.29;42.99;99106.53;10393533;28;20206;-76
2022/08/15 12:57:37;;;;;;;4.43;2.90;;;;;;;27.44;45.24;99123.00;10406562;28;20085;-74
2022/08/15 13:02:58;;;;;;;3.42;2.45;;;;;;;27.78;44.66;99119.97;10405139;28;20843;-74
2022/08/15 13:08:01;;;;;;;2.75;1.90;;;;;;;28.20;43.73;99119.91;10397143;28;20040;-73
2022/08/15 13:13:23;;;;;;;4.18;2.33;;;;;;;28.54;42.93;99108.53;10396726;28;20045;-72
2022/08/15 13:18:26;;;;;;;2.67;2.10;;;;;;;28.40;43.29;99107.38;10399074;28;20073;-73
2022/08/15 13:23:35;;;;;;;2.60;2.15;;;;;;;28.08;42.36;99111.13;10395853;28;20060;-72
2022/08/15 13:28:59;;;;;;;2.55;2.00;;;;;;;28.20;42.58;99103.50;10398930;28;20045;-73
2022/08/15 13:34:01;;;;;;;4.82;2.60;;;;;;;28.11;42.42;99098.81;10406613;28;20056;-70
2022/08/15 13:39:06;;;;;;;3.17;2.67;;;;;;;27.79;43.08;99106.03;10392619;28;20055;-74
2022/08/15 13:44:17;;;;;;;3.35;2.10;;;;;;;28.10;42.45;99091.69;10396892;28;20038;-73
2022/08/15 13:49:34;;;;;;;2.08;1.98;;;;;;;28.83;41.81;99082.59;10394947;28;20048;-73
2022/08/15 13:54:36;;;;;;;4.68;1.77;;;;;;;29.06;40.75;99083.97;10397223;28;20060;-72
2022/08/15 13:59:50;;;;;;;5.20;2.28;;;;;;;29.07;40.29;99078.22;10395896;28;20041;-74
2022/08/15 14:04:59;;;;;;;2.53;2.27;;;;;;;28.57;41.68;99069.66;10380203;28;20049;-73
2022/08/15 14:10:01;;;;;;;2.70;2.50;;;;;;;28.07;42.58;99065.69;10396000;28;20040;-74
2022/08/15 14:15:22;;;;;;;3.47;1.90;;;;;;;27.82;42.26;99050.81;10390590;28;20057;-75
2022/08/15 14:20:44;;;;;;;3.33;2.47;;;;;;;27.83;42.39;99049.72;10378687;28;20478;-73
2022/08/15 14:25:55;;;;;;;4.73;2.10;;;;;;;27.73;41.47;99044.22;10396430;28;20147;-75
2022/08/15 14:31:17;;;;;;;3.45;2.15;;;;;;;27.56;41.38;99032.63;10397483;28;20063;-74
2022/08/15 14:36:21;;;;;;;4.18;2.40;;;;;;;27.62;41.85;99037.03;10396334;28;20431;-74
2022/08/15 14:41:30;;;;;;;3.75;2.30;;;;;;;27.35;41.53;99043.44;10376690;28;20045;-74
2022/08/15 14:46:37;;;;;;;2.95;2.08;;;;;;;27.16;41.84;99046.56;10370837;28;20060;-76
2022/08/15 14:51:49;;;;;;;3.65;1.95;;;;;;;27.10;42.38;99044.91;10403245;28;20053;-74
2022/08/15 14:57:11;;;;;;;2.95;2.33;;;;;;;26.90;42.54;99042.00;10393088;28;20087;-74
2022/08/15 15:02:15;;;;;;;4.22;2.50;;;;;;;26.76;44.21;99053.34;10393255;28;20048;-75
2022/08/15 15:07:28;;;;;;;3.20;2.35;;;;;;;26.80;43.10;99065.41;10379205;28;20052;-75
2022/08/15 15:12:51;;;;;;;3.80;3.15;;;;;;;26.73;43.59;99056.59;10391105;28;20060;-75
2022/08/15 15:17:52;;;;;;;3.10;2.22;;;;;;;26.61;43.78;99056.72;10397839;28;20124;-75
2022/08/15 15:22:54;;;;;;;5.93;2.25;;;;;;;26.73;43.67;99058.50;10393430;28;20457;-76
2022/08/15 15:28:00;;;;;;;3.65;2.20;;;;;;;26.76;43.45;99053.34;10380975;28;20052;-75
2022/08/15 15:33:21;;;;;;;2.08;1.80;;;;;;;26.83;43.32;99053.16;10384215;28;20119;-75
2022/08/15 15:38:23;;;;;;;2.28;1.95;;;;;;;26.97;43.12;99062.53;10371156;28;21493;-75
2022/08/15 15:43:38;;;;;;;3.03;1.50;;;;;;;26.94;42.13;99057.59;10393812;28;20049;-75
2022/08/15 15:48:48;;;;;;;3.28;1.83;;;;;;;26.88;40.91;99057.81;10385601;28;20119;-75
2022/08/15 15:54:03;;;;;;;2.17;1.58;;;;;;;26.84;41.56;99053.97;10389193;28;20048;-75
2022/08/15 15:59:25;;;;;;;1.83;1.40;;;;;;;26.77;41.56;99055.00;10398781;28;20083;-75
2022/08/15 16:04:46;;;;;;;3.15;1.60;;;;;;;26.84;41.24;99043.03;10388822;28;20999;-75
2022/08/15 16:09:47;;;;;;;1.92;1.35;;;;;;;26.81;41.05;99058.88;10398125;28;20057;-74
2022/08/15 16:15:04;;;;;;;2.45;1.60;;;;;;;26.72;41.15;99035.88;10389708;28;20059;-75
2022/08/15 16:20:14;;;;;;;1.67;1.50;;;;;;;26.61;39.99;99045.00;10378482;28;20199;-74
2022/08/15 16:25:49;;;;;;;2.85;1.90;;;;;;;26.51;40.29;99031.25;10371484;28;20060;-76
2022/08/15 16:30:58;;;;;;;2.88;2.13;;;;;;;26.56;40.20;99014.94;10374758;28;20045;-76
2022/08/15 16:36:13;;;;;;;2.80;1.50;;;;;;;26.55;39.91;99033.19;10384078;28;20149;-74
2022/08/15 16:41:41;;;;;;;3.08;1.90;;;;;;;26.50;40.34;99032.31;10374777;28;20056;-72
2022/08/15 16:47:08;;;;;;;2.03;1.45;;;;;;;26.57;40.26;99035.66;10378613;28;20067;-73
2022/08/15 16:53:05;;;;;;;1.83;1.42;;;;;;;26.58;39.97;99029.16;10391407;28;20052;-74
2022/08/15 16:58:40;;;;;;;3.25;1.52;;;;;;;26.63;40.09;99029.19;10399466;28;20543;-74
2022/08/15 17:03:57;;;;;;;4.55;2.53;;;;;;;26.64;40.19;99045.28;10436435;28;21157;-74
2022/08/15 17:09:21;;;;;;;1.85;1.63;;;;;;;26.67;40.37;99044.00;10408172;28;20079;-74
2022/08/15 17:15:02;;;;;;;2.53;1.80;;;;;;;26.63;40.49;99051.00;10398260;28;20067;-71
2022/08/15 17:20:07;;;;;;;2.17;1.98;;;;;;;26.64;40.34;99058.13;10383187;28;20159;-74
2022/08/15 17:25:27;;;;;;;2.30;2.10;;;;;;;26.58;40.74;99073.63;10407683;28;20056;-74
2022/08/15 17:30:42;;;;;;;2.70;2.00;;;;;;;26.59;40.71;99069.00;10412406;28;20529;-74
2022/08/15 17:35:58;;;;;;;2.15;1.70;;;;;;;26.63;40.61;99075.56;10389239;28;20050;-73
2022/08/15 17:41:12;;;;;;;2.87;1.90;;;;;;;26.58;40.69;99078.25;10378953;28;20817;-73
2022/08/15 17:46:23;;;;;;;4.00;1.95;;;;;;;26.61;40.91;99083.19;10377030;28;20068;-72
2022/08/15 17:51:46;;;;;;;3.03;2.72;;;;;;;26.70;41.04;99078.94;10389594;28;20038;-73
2022/08/15 17:57:00;;;;;;;2.83;2.08;;;;;;;26.77;40.50;99086.94;10392272;28;20045;-72
2022/08/15 18:02:02;;;;;;;5.15;2.40;;;;;;;26.74;40.53;99079.28;10375610;28;20059;-74
2022/08/15 18:07:26;;;;;;;3.17;2.22;;;;;;;26.56;42.50;99092.16;10392044;28;20053;-71
2022/08/15 18:12:29;;;;;;;3.03;1.90;;;;;;;26.46;43.51;99103.78;10379199;28;20056;-73
2022/08/15 18:17:36;;;;;;;4.45;2.85;;;;;;;26.24;45.08;99111.16;10380351;28;20040;-76
2022/08/15 18:22:38;;;;;;;3.65;2.42;;;;;;;26.18;45.34;99117.63;10378323;28;20049;-73
2022/08/15 18:27:48;;;;;;;2.45;2.15;;;;;;;25.97;45.92;99128.25;10395202;28;20064;-74
2022/08/15 18:33:01;;;;;;;2.03;1.93;;;;;;;25.72;46.53;99140.44;10391379;28;20057;-73
2022/08/15 18:38:19;;;;;;;2.47;1.88;;;;;;;25.53;46.92;99144.50;10379455;28;20159;-73
2022/08/15 18:43:54;;;;;;;2.15;1.80;;;;;;;25.34;47.79;99157.56;10388604;28;20452;-73
2022/08/15 18:49:20;;;;;;;3.50;2.30;;;;;;;25.25;48.25;99176.16;10375540;28;20045;-73
2022/08/15 18:54:32;;;;;;;4.93;2.42;;;;;;;25.14;48.68;99174.34;10379733;28;20506;-71
2022/08/15 19:00:00;;;;;;;3.97;2.50;;;;;;;24.97;49.51;99186.03;10372028;28;20075;-73
2022/08/15 19:05:10;;;;;;;2.60;2.40;;;;;;;25.03;49.00;99187.78;10390686;28;20087;-73
2022/08/15 19:10:23;;;;;;;3.03;1.90;;;;;;;25.06;48.77;99191.91;10391684;28;20045;-72
2022/08/15 19:15:37;;;;;;;2.00;1.77;;;;;;;24.87;47.63;99196.72;10377254;28;20171;-73
2022/08/15 19:20:39;;;;;;;2.47;1.93;;;;;;;24.82;47.34;99205.63;10372478;28;20040;-73
2022/08/15 19:26:12;;;;;;;3.47;2.00;;;;;;;24.73;47.15;99211.72;10389404;28;21216;-71
2022/08/15 19:31:35;;;;;;;2.38;1.65;;;;;;;24.64;46.99;99201.19;10386110;28;20322;-72
2022/08/15 19:37:03;;;;;;;1.60;1.33;;;;;;;24.60;47.34;99210.91;10372577;28;20136;-72
2022/08/15 19:42:25;;;;;;;5.07;2.55;;;;;;;24.47;47.84;99214.69;10389810;28;20048;-75
2022/08/15 19:47:40;;;;;;;4.18;2.90;;;;;;;24.35;48.97;99225.59;10370272;28;20794;-71
2022/08/15 19:53:05;;;;;;;3.22;2.92;;;;;;;24.25;49.33;99222.66;10390888;28;20627;-72
2022/08/15 19:58:35;;;;;;;4.38;3.20;;;;;;;24.21;49.77;99226.91;10388248;28;20059;-72
2022/08/15 20:04:06;;;;;;;4.05;2.97;;;;;;;24.07;51.01;99230.94;10335298;28;20052;-73
2022/08/15 20:10:10;;;;;;;4.70;3.03;;;;;;;24.05;51.70;99233.91;10386681;28;20057;-72
2022/08/15 20:15:25;;;;;;;6.20;3.63;;;;;;;23.93;52.14;99246.66;10378171;28;20048;-72
2022/08/15 20:20:26;;;;;;;5.50;3.53;;;;;;;23.83;53.28;99258.09;10391609;28;20056;-71
2022/08/15 20:25:44;;;;;;;5.50;3.05;;;;;;;23.62;54.50;99249.41;10379363;28;20057;-70
2022/08/15 20:30:55;;;;;;;3.45;2.95;;;;;;;23.48;55.64;99258.84;10376764;28;20063;-70
2022/08/15 20:36:02;;;;;;;5.88;3.67;;;;;;;23.41;56.13;99255.41;10390886;28;20041;-72
2022/08/15 20:41:08;;;;;;;4.85;3.20;;;;;;;23.34;56.64;99260.09;10395475;28;20672;-73
2022/08/15 20:46:32;;;;;;;3.45;3.13;;;;;;;23.23;56.90;99267.97;10381044;28;20137;-69
2022/08/15 20:51:51;;;;;;;4.97;3.17;;;;;;;23.09;57.71;99280.06;10391262;28;20049;-71
2022/08/15 20:57:22;;;;;;;3.55;2.95;;;;;;;22.93;58.12;99273.38;10393958;28;20084;-74
2022/08/15 21:02:40;;;;;;;4.60;2.65;;;;;;;22.89;58.83;99280.31;10394942;28;20112;-72
2022/08/15 21:07:49;;;;;;;4.05;3.00;;;;;;;22.84;58.52;99286.41;10390044;28;20045;-71
2022/08/15 21:13:18;;;;;;;3.72;2.65;;;;;;;22.70;58.93;99288.47;10394564;28;20055;-73
2022/08/15 21:18:47;;;;;;;3.40;2.90;;;;;;;22.70;58.60;99293.03;10375168;28;20042;-72
2022/08/15 21:23:57;;;;;;;4.03;2.47;;;;;;;22.55;59.04;99301.56;10393395;28;20060;-71
2022/08/15 21:29:19;;;;;;;3.55;2.85;;;;;;;22.42;59.67;99297.09;10395088;28;20764;-71
2022/08/15 21:34:33;;;;;;;3.63;2.72;;;;;;;22.34;59.81;99300.94;10390404;28;20048;-72
2022/08/15 21:39:47;;;;;;;4.78;3.13;;;;;;;22.40;59.74;99310.06;10383254;28;20616;-73
2022/08/15 21:45:12;;;;;;;3.75;2.58;;;;;;;22.37;59.42;99305.09;10393394;28;20049;-71
2022/08/15 21:50:38;;;;;;;4.22;2.78;;;;;;;22.24;59.12;99301.41;10388627;28;20059;-71
2022/08/15 21:55:49;;;;;;;4.15;2.58;;;;;;;22.23;59.74;99315.19;10390062;28;20061;-72
2022/08/15 22:01:07;;;;;;;;;;;;;;;22.18;60.20;99307.72;10373112;28;20150;-70
2022/08/15 22:06:14;;;;;;;3.38;2.63;;;;;;;22.10;59.89;99312.59;10392145;28;20074;-72
2022/08/15 22:11:38;;;;;;;2.97;2.40;;;;;;;22.15;60.20;99315.47;10374566;28;20048;-71
2022/08/15 22:16:41;;;;;;;4.18;2.60;;;;;;;22.13;60.09;99326.53;10374911;28;20591;-71
2022/08/15 22:21:48;;;;;;;3.22;2.80;;;;;;;21.97;60.71;99330.63;10373041;28;20064;-70
2022/08/15 22:26:49;;;;;;;3.47;2.58;;;;;;;21.82;61.27;99333.66;10370231;28;20059;-71
2022/08/15 22:31:56;;;;;;;2.63;2.42;;;;;;;21.80;61.42;99341.19;10389667;28;20065;-72
2022/08/15 22:37:18;;;;;;;2.70;2.30;;;;;;;21.78;61.33;99342.44;10393621;28;20045;-73
2022/08/15 22:42:35;;;;;;;4.70;2.73;;;;;;;21.67;61.64;99354.81;10372646;28;20045;-70
2022/08/15 22:47:37;;;;;;;2.92;2.10;;;;;;;21.70;61.67;99346.25;10383062;28;20139;-72
2022/08/15 22:52:44;;;;;;;2.95;2.28;;;;;;;21.59;61.95;99352.34;10376622;28;20707;-72
2022/08/15 22:57:46;;;;;;;2.53;2.10;;;;;;;21.51;62.27;99348.03;10378727;28;20060;-71
2022/08/15 23:03:01;;;;;;;2.80;2.25;;;;;;;21.43;62.38;99349.06;10388499;28;20097;-70
2022/08/15 23:08:07;;;;;;;3.42;2.22;;;;;;;21.52;61.93;99352.41;10392341;28;20798;-71
2022/08/15 23:13:32;;;;;;;2.60;2.17;;;;;;;21.39;62.79;99358.66;10388683;28;20060;-70
2022/08/15 23:18:57;;;;;;;3.35;2.20;;;;;;;21.29;63.15;99353.72;10389444;28;20050;-71
2022/08/15 23:24:05;;;;;;;2.45;2.00;;;;;;;21.28;62.99;99349.34;10386450;28;20093;-71
2022/08/15 23:29:29;;;;;;;2.00;1.80;;;;;;;21.35;62.98;99349.34;10387662;28;20049;-71
2022/08/15 23:34:38;;;;;;;2.92;2.35;;;;;;;21.23;63.77;99356.47;10388044;28;20132;-72
2022/08/15 23:40:11;;;;;;;2.42;2.08;;;;;;;21.12;63.98;99358.81;10383154;28;20053;-72
2022/08/15 23:45:14;;;;;;;3.05;2.17;;;;;;;21.26;63.75;99358.72;10387347;28;20464;-72
2022/08/15 23:50:15;;;;;;;3.45;2.50;;;;;;;21.39;63.16;99355.97;10388626;28;20068;-72
2022/08/15 23:55:29;;;;;;;2.65;2.30;;;;;;;21.41;63.33;99367.41;10375024;28;20049;-71
